createdAt,value
2022-11-07T00:01:23.959Z,98193.88
2022-11-07T00:04:31.301Z,98195.62
2022-11-07T00:07:34.362Z,98192.23
2022-11-07T00:10:37.328Z,98191.16
2022-11-07T00:13:40.312Z,98194.05
2022-11-07T00:16:44.869Z,98197.76
2022-11-07T00:19:49.337Z,98192.81
2022-11-07T00:22:52.309Z,98193.14
2022-11-07T00:26:00.768Z,98190.86
2022-11-07T00:29:06.517Z,98191.34
2022-11-07T00:32:09.501Z,98188.21
2022-11-07T00:35:12.421Z,98193.85
2022-11-07T00:38:15.564Z,98190.48
2022-11-07T00:41:19.302Z,98186.10
2022-11-07T00:44:22.854Z,98177.11
2022-11-07T00:47:25.820Z,98174.30
2022-11-07T00:50:28.754Z,98164.98
2022-11-07T00:53:31.686Z,98166.55
2022-11-07T00:56:34.676Z,98166.30
2022-11-07T00:59:37.551Z,98169.67
2022-11-07T01:02:40.541Z,98167.95
2022-11-07T01:05:43.568Z,98170.54
2022-11-07T01:08:46.567Z,98163.08
2022-11-07T01:11:49.980Z,98156.65
2022-11-07T01:14:52.893Z,98157.82
2022-11-07T01:17:55.884Z,98159.30
2022-11-07T01:20:58.902Z,98159.54
2022-11-07T01:24:03.603Z,98163.70
2022-11-07T01:27:06.603Z,98159.95
2022-11-07T01:30:10.121Z,98159.63
2022-11-07T01:33:13.644Z,98160.41
2022-11-07T01:36:17.981Z,98159.30
2022-11-07T01:39:20.877Z,98167.46
2022-11-07T01:42:24.463Z,98154.16
2022-11-07T01:45:29.879Z,98152.05
2022-11-07T01:48:33.053Z,98148.91
2022-11-07T01:51:41.721Z,98142.17
2022-11-07T01:54:55.088Z,98134.81
2022-11-07T01:58:03.186Z,98135.38
2022-11-07T02:01:06.087Z,98132.88
2022-11-07T02:04:10.518Z,98126.13
2022-11-07T02:07:18.812Z,98124.64
2022-11-07T02:10:21.890Z,98118.38
2022-11-07T02:13:28.102Z,98115.24
2022-11-07T02:16:32.844Z,98115.80
2022-11-07T02:19:49.890Z,98119.48
2022-11-07T02:22:57.218Z,98118.40
2022-11-07T02:26:00.361Z,98116.36
2022-11-07T02:29:09.478Z,98120.90
2022-11-07T02:32:12.867Z,98114.88
2022-11-07T02:35:46.626Z,98113.08
2022-11-07T02:38:57.507Z,98112.85
2022-11-07T02:42:02.583Z,98109.09
2022-11-07T02:45:06.351Z,98107.20
2022-11-07T02:48:09.584Z,98109.80
2022-11-07T02:51:13.211Z,98110.05
2022-11-07T02:54:16.184Z,98104.55
2022-11-07T02:57:19.119Z,98098.13
2022-11-07T03:00:22.151Z,98101.97
2022-11-07T03:03:25.109Z,98101.02
2022-11-07T03:06:28.364Z,98099.70
2022-11-07T03:09:31.495Z,98102.61
2022-11-07T03:12:34.606Z,98095.95
2022-11-07T03:15:37.534Z,98090.70
2022-11-07T03:18:40.619Z,98090.69
2022-11-07T03:21:43.577Z,98085.61
2022-11-07T03:24:46.561Z,98085.28
2022-11-07T03:27:50.417Z,98087.55
2022-11-07T03:30:53.731Z,98088.27
2022-11-07T03:33:56.821Z,98084.89
2022-11-07T03:36:59.772Z,98078.86
2022-11-07T03:40:02.836Z,98084.34
2022-11-07T03:43:05.856Z,98077.52
2022-11-07T03:46:08.792Z,98078.86
2022-11-07T03:49:11.715Z,98075.95
2022-11-07T03:52:14.641Z,98075.85
2022-11-07T03:55:18.374Z,98076.56
2022-11-07T03:58:21.789Z,98081.04
2022-11-07T04:01:24.857Z,98076.39
2022-11-07T04:04:28.069Z,98073.80
2022-11-07T04:07:31.069Z,98075.75
2022-11-07T04:10:34.055Z,98072.45
2022-11-07T04:13:55.860Z,98072.14
2022-11-07T04:17:17.459Z,98069.68
2022-11-07T04:20:20.577Z,98074.06
2022-11-07T04:23:23.541Z,98075.85
2022-11-07T04:26:45.070Z,98070.68
2022-11-07T04:29:48.039Z,98077.65
2022-11-07T04:32:56.904Z,98084.61
2022-11-07T04:35:59.953Z,98090.73
2022-11-07T04:39:03.038Z,98087.73
2022-11-07T04:42:05.998Z,98086.81
2022-11-07T04:45:09.595Z,98089.55
2022-11-07T04:48:12.942Z,98090.88
2022-11-07T04:51:20.638Z,98088.92
2022-11-07T04:54:23.745Z,98091.03
2022-11-07T04:57:26.695Z,98097.45
2022-11-07T05:00:29.665Z,98091.73
2022-11-07T05:03:36.218Z,98094.46
2022-11-07T05:06:42.105Z,98096.73
2022-11-07T05:09:45.081Z,98100.25
2022-11-07T05:12:48.134Z,98102.75
2022-11-07T05:15:51.228Z,98103.61
2022-11-07T05:18:54.192Z,98105.96
2022-11-07T05:22:15.318Z,98097.66
2022-11-07T05:25:18.315Z,98096.02
2022-11-07T05:28:30.302Z,98091.80
2022-11-07T05:31:38.453Z,98091.40
2022-11-07T05:34:41.486Z,98090.62
2022-11-07T05:37:44.445Z,98095.23
2022-11-07T05:40:47.431Z,98094.77
2022-11-07T05:43:50.385Z,98100.82
2022-11-07T05:46:53.250Z,98110.70
2022-11-07T05:49:56.205Z,98118.00
2022-11-07T05:52:59.379Z,98121.15
2022-11-07T05:56:02.423Z,98129.62
2022-11-07T05:59:05.388Z,98133.47
2022-11-07T06:02:08.420Z,98133.00
2022-11-07T06:05:12.328Z,98133.72
2022-11-07T06:08:15.784Z,98138.04
2022-11-07T06:11:18.796Z,98143.14
2022-11-07T06:14:21.690Z,98143.70
2022-11-07T06:17:24.679Z,98144.18
2022-11-07T06:20:27.964Z,98144.02
2022-11-07T06:23:30.857Z,98140.66
2022-11-07T06:26:33.785Z,98136.90
2022-11-07T06:29:36.685Z,98135.10
2022-11-07T06:32:45.346Z,98135.57
2022-11-07T06:35:48.473Z,98144.90
2022-11-07T06:38:55.069Z,98146.33
2022-11-07T06:41:57.950Z,98144.76
2022-11-07T06:45:00.846Z,98141.00
2022-11-07T06:48:04.537Z,98140.53
2022-11-07T06:51:10.042Z,98144.23
2022-11-07T06:54:13.392Z,98151.36
2022-11-07T06:57:16.536Z,98155.52
2022-11-07T07:00:19.626Z,98164.16
2022-11-07T07:03:22.514Z,98165.34
2022-11-07T07:06:25.512Z,98170.99
2022-11-07T07:09:28.507Z,98169.59
2022-11-07T07:12:31.457Z,98166.30
2022-11-07T07:15:49.387Z,98168.17
2022-11-07T07:18:53.626Z,98166.62
2022-11-07T07:21:56.808Z,98166.22
2022-11-07T07:24:59.768Z,98178.39
2022-11-07T07:28:02.642Z,98179.25
2022-11-07T07:31:14.589Z,98180.27
2022-11-07T07:34:17.557Z,98176.59
2022-11-07T07:37:20.504Z,98179.18
2022-11-07T07:40:23.495Z,98181.71
2022-11-07T07:43:27.855Z,98180.37
2022-11-07T07:46:30.830Z,98177.63
2022-11-07T07:49:33.845Z,98177.95
2022-11-07T07:52:37.746Z,98180.95
2022-11-07T07:55:41.759Z,98185.80
2022-11-07T07:58:45.762Z,98188.42
2022-11-07T08:01:53.555Z,98183.08
2022-11-07T08:04:59.834Z,98188.13
2022-11-07T08:08:02.856Z,98194.27
2022-11-07T08:11:08.644Z,98197.97
2022-11-07T08:14:11.912Z,98203.67
2022-11-07T08:17:14.904Z,98206.04
2022-11-07T08:20:24.615Z,98209.89
2022-11-07T08:23:27.758Z,98212.65
2022-11-07T08:26:31.461Z,98217.89
2022-11-07T08:29:34.503Z,98221.04
2022-11-07T08:32:37.543Z,98225.44
2022-11-07T08:35:42.731Z,98231.63
2022-11-07T08:38:46.009Z,98228.80
2022-11-07T08:41:49.055Z,98236.04
2022-11-07T08:44:52.187Z,98240.83
2022-11-07T08:47:59.347Z,98246.73
2022-11-07T08:51:05.200Z,98246.95
2022-11-07T08:54:08.229Z,98252.46
2022-11-07T08:57:11.668Z,98253.34
2022-11-07T09:00:14.861Z,98252.87
2022-11-07T09:03:39.128Z,98258.21
2022-11-07T09:06:42.451Z,98257.73
2022-11-07T09:09:45.460Z,98255.72
2022-11-07T09:12:49.816Z,98255.16
2022-11-07T09:15:59.408Z,98257.69
2022-11-07T09:19:04.834Z,98259.64
2022-11-07T09:22:07.968Z,98264.05
2022-11-07T09:25:11.537Z,98263.81
2022-11-07T09:28:15.197Z,98263.73
2022-11-07T09:31:20.549Z,98262.48
2022-11-07T09:34:23.552Z,98268.21
2022-11-07T09:37:26.611Z,98263.66
2022-11-07T09:40:52.697Z,98265.87
2022-11-07T09:44:11.080Z,98271.91
2022-11-07T09:47:29.451Z,98273.72
2022-11-07T09:50:39.208Z,98273.71
2022-11-07T09:53:47.372Z,98273.64
2022-11-07T09:56:51.195Z,98281.50
2022-11-07T09:59:57.785Z,98278.36
2022-11-07T10:03:02.270Z,98271.20
2022-11-07T10:06:27.302Z,98278.03
2022-11-07T10:09:57.517Z,98276.06
2022-11-07T10:13:34.825Z,98274.56
2022-11-07T10:17:09.021Z,98266.88
2022-11-07T10:20:30.320Z,98269.06
2022-11-07T10:23:52.333Z,98274.87
2022-11-07T10:26:56.665Z,98272.43
2022-11-07T10:30:01.525Z,98274.48
2022-11-07T10:33:20.979Z,98269.98
2022-11-07T10:36:30.128Z,98268.79
2022-11-07T10:39:33.147Z,98268.90
2022-11-07T10:42:36.135Z,98272.23
2022-11-07T10:45:40.112Z,98276.27
2022-11-07T10:48:53.423Z,98270.79
2022-11-07T10:52:16.911Z,98270.55
2022-11-07T10:55:20.751Z,98268.09
2022-11-07T10:58:35.886Z,98264.37
2022-11-07T11:01:39.007Z,98258.35
2022-11-07T11:04:50.894Z,98261.63
2022-11-07T11:07:56.850Z,98264.20
2022-11-07T11:11:00.006Z,98258.41
2022-11-07T11:14:09.181Z,98251.14
2022-11-07T11:17:26.500Z,98248.27
2022-11-07T11:20:44.164Z,98256.14
2022-11-07T11:23:48.357Z,98258.79
2022-11-07T11:26:53.823Z,98261.89
2022-11-07T11:29:57.103Z,98267.31
2022-11-07T11:33:09.005Z,98265.26
2022-11-07T11:36:23.387Z,98265.63
2022-11-07T11:39:39.290Z,98267.36
2022-11-07T11:43:00.011Z,98269.33
2022-11-07T11:46:36.798Z,98272.56
2022-11-07T11:49:59.441Z,98270.74
2022-11-07T11:53:02.459Z,98268.04
2022-11-07T11:56:09.160Z,98266.52
2022-11-07T11:59:30.772Z,98265.20
2022-11-07T12:02:48.429Z,98266.60
2022-11-07T12:06:13.935Z,98266.63
2022-11-07T12:09:33.132Z,98264.04
2022-11-07T12:13:10.001Z,98263.35
2022-11-07T12:16:31.167Z,98261.42
2022-11-07T12:19:38.956Z,98250.06
2022-11-07T12:22:53.078Z,98254.30
2022-11-07T12:26:14.770Z,98252.58
2022-11-07T12:29:34.942Z,98254.87
2022-11-07T12:32:45.554Z,98255.94
2022-11-07T12:36:00.431Z,98254.41
2022-11-07T12:39:37.968Z,98256.75
2022-11-07T12:43:13.793Z,98258.92
2022-11-07T12:46:27.064Z,98264.02
2022-11-07T12:50:04.353Z,98263.77
2022-11-07T12:53:13.686Z,98264.95
2022-11-07T12:56:23.339Z,98271.85
2022-11-07T12:59:29.790Z,98274.08
2022-11-07T13:02:53.923Z,98272.69
2022-11-07T13:06:09.898Z,98270.35
2022-11-07T13:09:31.427Z,98279.44
2022-11-07T13:12:41.235Z,98282.69
2022-11-07T13:16:13.396Z,98274.77
2022-11-07T13:19:21.126Z,98278.27
2022-11-07T13:22:32.682Z,98279.23
2022-11-07T13:25:35.958Z,98279.73
2022-11-07T13:28:40.254Z,98278.89
2022-11-07T13:31:45.607Z,98278.68
2022-11-07T13:35:07.183Z,98282.70
2022-11-07T13:38:20.291Z,98281.94
2022-11-07T13:41:25.097Z,98285.73
2022-11-07T13:44:32.886Z,98291.56
2022-11-07T13:47:40.775Z,98288.19
2022-11-07T13:50:50.567Z,98288.52
2022-11-07T13:54:04.833Z,98291.59
2022-11-07T13:57:20.765Z,98294.85
2022-11-07T14:00:23.940Z,98292.96
2022-11-07T14:03:28.073Z,98301.78
2022-11-07T14:06:32.113Z,98307.23
2022-11-07T14:09:35.309Z,98299.61
2022-11-07T14:12:40.023Z,98307.01
2022-11-07T14:15:55.903Z,98310.33
2022-11-07T14:19:07.110Z,98309.70
2022-11-07T14:22:25.585Z,98314.20
2022-11-07T14:25:33.546Z,98316.33
2022-11-07T14:28:40.496Z,98316.27
2022-11-07T14:31:45.448Z,98313.98
2022-11-07T14:34:50.456Z,98309.99
2022-11-07T14:37:54.214Z,98315.97
2022-11-07T14:41:01.419Z,98321.17
2022-11-07T14:44:12.766Z,98321.57
2022-11-07T14:47:22.013Z,98323.55
2022-11-07T14:50:28.038Z,98319.77
2022-11-07T14:53:37.612Z,98322.05
2022-11-07T14:56:45.605Z,98317.89
2022-11-07T14:59:48.945Z,98320.41
2022-11-07T15:02:55.393Z,98324.66
2022-11-07T15:05:59.067Z,98320.04
2022-11-07T15:09:05.627Z,98320.35
2022-11-07T15:12:17.560Z,98325.63
2022-11-07T15:15:35.654Z,98327.85
2022-11-07T15:18:42.945Z,98333.11
2022-11-07T15:21:58.069Z,98331.55
2022-11-07T15:25:01.280Z,98333.54
2022-11-07T15:28:19.942Z,98334.70
2022-11-07T15:31:29.474Z,98337.79
2022-11-07T15:34:58.291Z,98336.29
2022-11-07T15:38:00.956Z,98334.50
2022-11-07T15:41:04.161Z,98328.77
2022-11-07T15:44:07.184Z,98328.30
2022-11-07T15:47:19.288Z,98333.81
2022-11-07T15:50:24.805Z,98338.45
2022-11-07T15:53:29.433Z,98339.79
2022-11-07T15:56:32.391Z,98340.80
2022-11-07T15:59:37.144Z,98336.46
2022-11-07T16:02:42.360Z,98334.12
2022-11-07T16:05:47.342Z,98330.28
2022-11-07T16:08:50.345Z,98332.02
2022-11-07T16:11:53.323Z,98332.15
2022-11-07T16:14:59.298Z,98331.85
2022-11-07T16:18:02.828Z,98329.64
2022-11-07T16:21:06.206Z,98334.22
2022-11-07T16:24:09.444Z,98340.90
2022-11-07T16:27:18.452Z,98335.85
2022-11-07T16:30:22.236Z,98335.54
2022-11-07T16:33:26.155Z,98337.75
2022-11-07T16:36:32.395Z,98334.75
2022-11-07T16:39:35.342Z,98336.73
2022-11-07T16:42:38.359Z,98338.92
2022-11-07T16:45:55.262Z,98347.64
2022-11-07T16:49:12.655Z,98351.88
2022-11-07T16:52:18.282Z,98355.17
2022-11-07T16:55:21.163Z,98352.04
2022-11-07T16:58:30.349Z,98354.16
2022-11-07T17:01:34.277Z,98356.11
2022-11-07T17:04:37.950Z,98357.61
2022-11-07T17:07:41.025Z,98351.55
2022-11-07T17:10:45.552Z,98354.62
2022-11-07T17:13:48.524Z,98360.66
2022-11-07T17:16:51.504Z,98357.29
2022-11-07T17:19:54.480Z,98354.45
2022-11-07T17:22:57.926Z,98352.09
2022-11-07T17:26:02.586Z,98361.90
2022-11-07T17:29:08.374Z,98358.21
2022-11-07T17:32:11.260Z,98355.70
2022-11-07T17:38:37.425Z,98358.37
2022-11-07T17:41:40.983Z,98358.61
2022-11-07T17:44:43.960Z,98362.68
2022-11-07T17:47:46.923Z,98363.07
2022-11-07T17:50:49.854Z,98362.68
2022-11-07T17:53:53.907Z,98366.61
2022-11-07T17:56:56.852Z,98363.94
2022-11-07T18:00:00.062Z,98362.27
2022-11-07T18:03:03.251Z,98363.61
2022-11-07T18:06:06.490Z,98371.30
2022-11-07T18:09:17.225Z,98367.29
2022-11-07T18:12:20.121Z,98371.68
2022-11-07T18:15:23.030Z,98367.98
2022-11-07T18:18:27.166Z,98366.56
2022-11-07T18:21:33.297Z,98368.92
2022-11-07T18:24:36.319Z,98372.29
2022-11-07T18:27:39.327Z,98377.39
2022-11-07T18:30:42.354Z,98382.80
2022-11-07T18:34:28.988Z,98383.19
2022-11-07T18:37:40.749Z,98382.16
2022-11-07T18:41:02.965Z,98381.69
2022-11-07T18:44:23.153Z,98380.58
2022-11-07T18:47:26.396Z,98380.96
2022-11-07T18:50:29.496Z,98380.58
2022-11-07T18:53:32.674Z,98384.25
2022-11-07T18:56:35.737Z,98381.26
2022-11-07T18:59:39.649Z,98381.16
2022-11-07T19:02:42.627Z,98385.46
2022-11-07T19:05:45.597Z,98383.65
2022-11-07T19:08:49.252Z,98379.10
2022-11-07T19:11:52.405Z,98377.27
2022-11-07T19:14:55.567Z,98380.73
2022-11-07T19:17:58.569Z,98375.63
2022-11-07T19:24:35.381Z,98370.77
2022-11-07T19:27:38.474Z,98376.09
2022-11-07T19:30:47.395Z,98378.90
2022-11-07T19:33:50.520Z,98381.95
2022-11-07T19:36:53.793Z,98382.59
2022-11-07T19:39:56.890Z,98388.61
2022-11-07T19:43:01.540Z,98395.67
2022-11-07T19:46:11.311Z,98394.80
2022-11-07T19:49:14.288Z,98396.85
2022-11-07T19:52:17.294Z,98401.78
2022-11-07T19:55:20.343Z,98403.05
2022-11-07T19:58:23.265Z,98405.86
2022-11-07T20:01:29.781Z,98408.11
2022-11-07T20:04:32.809Z,98411.40
2022-11-07T20:07:35.959Z,98405.73
2022-11-07T20:10:45.744Z,98406.62
2022-11-07T20:13:48.862Z,98411.25
2022-11-07T20:16:52.129Z,98413.83
2022-11-07T20:19:55.192Z,98412.88
2022-11-07T20:23:00.315Z,98413.19
2022-11-07T20:26:15.037Z,98415.08
2022-11-07T20:29:19.223Z,98419.08
2022-11-07T20:32:22.348Z,98416.80
2022-11-07T20:35:25.338Z,98420.63
2022-11-07T20:38:29.679Z,98420.70
2022-11-07T20:41:33.441Z,98417.77
2022-11-07T20:44:36.431Z,98418.17
2022-11-07T20:47:40.281Z,98418.02
2022-11-07T20:50:43.393Z,98419.03
2022-11-07T20:53:50.411Z,98419.27
2022-11-07T20:56:53.797Z,98419.11
2022-11-07T20:59:56.763Z,98418.80
2022-11-07T21:02:59.833Z,98425.09
2022-11-07T21:06:03.616Z,98427.90
2022-11-07T21:09:07.472Z,98430.83
2022-11-07T21:12:11.378Z,98435.45
2022-11-07T21:15:14.487Z,98434.99
2022-11-07T21:18:17.735Z,98432.64
2022-11-07T21:21:23.679Z,98435.70
2022-11-07T21:24:30.736Z,98432.55
2022-11-07T21:27:36.345Z,98429.71
2022-11-07T21:30:39.785Z,98431.13
2022-11-07T21:33:42.881Z,98428.15
2022-11-07T21:36:45.809Z,98428.54
2022-11-07T21:39:48.832Z,98425.92
2022-11-07T21:42:54.982Z,98426.16
2022-11-07T21:46:19.292Z,98425.92
2022-11-07T21:49:22.364Z,98424.48
2022-11-07T21:52:25.507Z,98426.05
2022-11-07T21:55:28.411Z,98424.86
2022-11-07T21:58:31.432Z,98426.36
2022-11-07T22:01:37.147Z,98427.79
2022-11-07T22:04:42.949Z,98422.23
2022-11-07T22:07:46.023Z,98424.84
2022-11-07T22:10:49.126Z,98428.61
2022-11-07T22:13:52.128Z,98425.88
2022-11-07T22:16:55.917Z,98423.20
2022-11-07T22:19:58.988Z,98421.56
2022-11-07T22:23:02.064Z,98421.71
2022-11-07T22:26:15.412Z,98422.82
2022-11-07T22:29:18.975Z,98421.02
2022-11-07T22:32:22.231Z,98421.63
2022-11-07T22:35:25.393Z,98420.53
2022-11-07T22:38:28.537Z,98423.27
2022-11-07T22:41:31.789Z,98419.02
2022-11-07T22:44:34.810Z,98417.92
2022-11-07T22:47:37.899Z,98414.77
2022-11-07T22:50:43.243Z,98421.65
2022-11-07T22:53:46.403Z,98421.86
2022-11-07T22:56:49.509Z,98422.17
2022-11-07T22:59:53.503Z,98423.52
2022-11-07T23:02:57.048Z,98419.11
2022-11-07T23:06:04.712Z,98424.46
2022-11-07T23:09:07.958Z,98425.23
2022-11-07T23:12:11.035Z,98425.23
2022-11-07T23:15:14.160Z,98421.63
2022-11-07T23:18:17.377Z,98419.52
2022-11-07T23:21:20.921Z,98422.56
2022-11-07T23:24:24.232Z,98421.30
2022-11-07T23:27:31.036Z,98422.86
2022-11-07T23:30:37.996Z,98422.95
2022-11-07T23:33:41.182Z,98422.08
2022-11-07T23:36:44.974Z,98420.73
2022-11-07T23:39:48.152Z,98422.29
2022-11-07T23:42:51.192Z,98419.16
2022-11-07T23:46:14.711Z,98420.52
2022-11-07T23:49:36.198Z,98421.98
2022-11-07T23:52:39.204Z,98425.02
2022-11-07T23:55:42.458Z,98425.48
2022-11-07T23:59:04.687Z,98422.40
